sensor_id;sensor_type;location;lat;lon;timestamp;temperature;humidity
19252;DHT22;9760;50.944;5.304;2023-03-24T00:02:16;12.40;99.90
19252;DHT22;9760;50.944;5.304;2023-03-24T00:04:43;12.30;99.90
19252;DHT22;9760;50.944;5.304;2023-03-24T00:07:09;12.30;99.90
19252;DHT22;9760;50.944;5.304;2023-03-24T00:09:40;12.30;99.90
19252;DHT22;9760;50.944;5.304;2023-03-24T00:12:07;12.30;99.90
19252;DHT22;9760;50.944;5.304;2023-03-24T00:14:34;12.20;99.90
19252;DHT22;9760;50.944;5.304;2023-03-24T00:16:59;12.20;99.90
19252;DHT22;9760;50.944;5.304;2023-03-24T00:19:26;12.30;99.90
19252;DHT22;9760;50.944;5.304;2023-03-24T00:21:51;12.30;99.90
19252;DHT22;9760;50.944;5.304;2023-03-24T00:24:20;12.30;99.90
19252;DHT22;9760;50.944;5.304;2023-03-24T00:26:47;12.30;99.90
19252;DHT22;9760;50.944;5.304;2023-03-24T00:29:15;12.30;99.90
19252;DHT22;9760;50.944;5.304;2023-03-24T00:31:40;12.30;99.90
19252;DHT22;9760;50.944;5.304;2023-03-24T00:34:08;12.30;99.90
19252;DHT22;9760;50.944;5.304;2023-03-24T00:36:35;12.20;99.90
19252;DHT22;9760;50.944;5.304;2023-03-24T00:39:02;12.20;99.90
19252;DHT22;9760;50.944;5.304;2023-03-24T00:41:29;12.30;99.90
19252;DHT22;9760;50.944;5.304;2023-03-24T00:43:57;12.30;99.90
19252;DHT22;9760;50.944;5.304;2023-03-24T00:46:23;12.30;99.90
19252;DHT22;9760;50.944;5.304;2023-03-24T00:48:56;12.30;99.90
19252;DHT22;9760;50.944;5.304;2023-03-24T00:51:27;12.30;99.90
19252;DHT22;9760;50.944;5.304;2023-03-24T00:53:53;12.30;99.90
19252;DHT22;9760;50.944;5.304;2023-03-24T00:56:24;12.30;99.90
19252;DHT22;9760;50.944;5.304;2023-03-24T00:58:51;12.40;99.90
19252;DHT22;9760;50.944;5.304;2023-03-24T01:01:19;12.40;99.90
19252;DHT22;9760;50.944;5.304;2023-03-24T01:03:47;12.30;99.90
19252;DHT22;9760;50.944;5.304;2023-03-24T01:06:15;12.40;99.90
19252;DHT22;9760;50.944;5.304;2023-03-24T01:08:43;12.40;99.90
19252;DHT22;9760;50.944;5.304;2023-03-24T01:11:09;12.30;99.90
19252;DHT22;9760;50.944;5.304;2023-03-24T01:13:37;12.40;99.90
19252;DHT22;9760;50.944;5.304;2023-03-24T01:16:04;12.40;99.90
19252;DHT22;9760;50.944;5.304;2023-03-24T01:18:31;12.40;99.90
19252;DHT22;9760;50.944;5.304;2023-03-24T01:20:56;12.40;99.90
19252;DHT22;9760;50.944;5.304;2023-03-24T01:23:24;12.40;99.90
19252;DHT22;9760;50.944;5.304;2023-03-24T01:25:51;12.40;99.90
19252;DHT22;9760;50.944;5.304;2023-03-24T01:28:20;12.50;99.90
19252;DHT22;9760;50.944;5.304;2023-03-24T01:30:48;12.50;99.90
19252;DHT22;9760;50.944;5.304;2023-03-24T01:33:14;12.40;99.90
19252;DHT22;9760;50.944;5.304;2023-03-24T01:35:39;12.50;99.90
19252;DHT22;9760;50.944;5.304;2023-03-24T01:38:07;12.50;99.90
19252;DHT22;9760;50.944;5.304;2023-03-24T01:40:35;12.50;99.90
19252;DHT22;9760;50.944;5.304;2023-03-24T01:43:02;12.50;99.90
19252;DHT22;9760;50.944;5.304;2023-03-24T01:53:58;12.60;99.90
19252;DHT22;9760;50.944;5.304;2023-03-24T01:56:26;12.70;99.90
19252;DHT22;9760;50.944;5.304;2023-03-24T01:58:57;12.70;99.90
19252;DHT22;9760;50.944;5.304;2023-03-24T02:01:24;12.70;99.90
19252;DHT22;9760;50.944;5.304;2023-03-24T02:03:55;12.70;99.90
19252;DHT22;9760;50.944;5.304;2023-03-24T02:06:21;12.70;99.90
19252;DHT22;9760;50.944;5.304;2023-03-24T02:08:56;12.80;99.90
19252;DHT22;9760;50.944;5.304;2023-03-24T02:11:24;12.80;99.90
19252;DHT22;9760;50.944;5.304;2023-03-24T02:13:51;12.80;99.90
19252;DHT22;9760;50.944;5.304;2023-03-24T02:30:46;13.20;99.90
19252;DHT22;9760;50.944;5.304;2023-03-24T02:39:33;13.10;99.90
19252;DHT22;9760;50.944;5.304;2023-03-24T02:42:15;13.10;99.90
19252;DHT22;9760;50.944;5.304;2023-03-24T02:50:26;13.10;99.90
19252;DHT22;9760;50.944;5.304;2023-03-24T02:55:35;13.10;99.90
19252;DHT22;9760;50.944;5.304;2023-03-24T02:58:22;13.00;99.90
19252;DHT22;9760;50.944;5.304;2023-03-24T03:00:59;12.90;99.90
19252;DHT22;9760;50.944;5.304;2023-03-24T03:03:30;12.70;99.90
19252;DHT22;9760;50.944;5.304;2023-03-24T03:06:05;12.70;99.90
19252;DHT22;9760;50.944;5.304;2023-03-24T03:08:34;12.60;99.90
19252;DHT22;9760;50.944;5.304;2023-03-24T03:11:02;12.50;99.90
19252;DHT22;9760;50.944;5.304;2023-03-24T03:13:38;12.50;99.90
19252;DHT22;9760;50.944;5.304;2023-03-24T03:16:54;12.50;99.90
19252;DHT22;9760;50.944;5.304;2023-03-24T03:19:10;12.50;99.90
19252;DHT22;9760;50.944;5.304;2023-03-24T03:21:39;12.50;99.90
19252;DHT22;9760;50.944;5.304;2023-03-24T03:24:20;12.50;99.90
19252;DHT22;9760;50.944;5.304;2023-03-24T03:26:55;12.50;99.90
19252;DHT22;9760;50.944;5.304;2023-03-24T03:29:25;12.50;99.90
19252;DHT22;9760;50.944;5.304;2023-03-24T03:32:00;12.50;99.90
19252;DHT22;9760;50.944;5.304;2023-03-24T03:34:55;12.40;99.90
19252;DHT22;9760;50.944;5.304;2023-03-24T03:41:09;12.40;99.90
19252;DHT22;9760;50.944;5.304;2023-03-24T03:43:16;12.30;99.90
19252;DHT22;9760;50.944;5.304;2023-03-24T03:45:42;12.10;99.90
19252;DHT22;9760;50.944;5.304;2023-03-24T03:48:09;12.00;99.90
19252;DHT22;9760;50.944;5.304;2023-03-24T03:50:35;11.80;99.90
19252;DHT22;9760;50.944;5.304;2023-03-24T03:53:02;11.70;99.90
19252;DHT22;9760;50.944;5.304;2023-03-24T03:55:29;11.60;99.90
19252;DHT22;9760;50.944;5.304;2023-03-24T03:57:55;11.50;99.90
19252;DHT22;9760;50.944;5.304;2023-03-24T04:00:21;11.40;99.90
19252;DHT22;9760;50.944;5.304;2023-03-24T04:05:53;11.30;99.90
19252;DHT22;9760;50.944;5.304;2023-03-24T04:08:45;11.20;99.90
19252;DHT22;9760;50.944;5.304;2023-03-24T04:11:35;11.10;99.90
19252;DHT22;9760;50.944;5.304;2023-03-24T04:20:09;11.00;99.90
19252;DHT22;9760;50.944;5.304;2023-03-24T04:25:31;11.00;99.90
19252;DHT22;9760;50.944;5.304;2023-03-24T04:31:03;10.90;99.90
19252;DHT22;9760;50.944;5.304;2023-03-24T04:33:46;10.90;99.90
19252;DHT22;9760;50.944;5.304;2023-03-24T04:36:34;10.90;99.90
19252;DHT22;9760;50.944;5.304;2023-03-24T04:39:12;10.90;99.90
19252;DHT22;9760;50.944;5.304;2023-03-24T04:41:39;10.90;99.90
19252;DHT22;9760;50.944;5.304;2023-03-24T04:44:06;10.80;99.90
19252;DHT22;9760;50.944;5.304;2023-03-24T04:46:32;10.70;99.90
19252;DHT22;9760;50.944;5.304;2023-03-24T04:48:57;10.70;99.90
19252;DHT22;9760;50.944;5.304;2023-03-24T04:51:24;10.70;99.90
19252;DHT22;9760;50.944;5.304;2023-03-24T04:53:51;10.60;99.90
19252;DHT22;9760;50.944;5.304;2023-03-24T04:59:04;10.50;99.90
19252;DHT22;9760;50.944;5.304;2023-03-24T05:01:31;10.50;99.90
19252;DHT22;9760;50.944;5.304;2023-03-24T05:04:02;10.50;99.90
19252;DHT22;9760;50.944;5.304;2023-03-24T05:06:29;10.50;99.90
19252;DHT22;9760;50.944;5.304;2023-03-24T05:08:55;10.40;99.90
19252;DHT22;9760;50.944;5.304;2023-03-24T05:11:26;10.40;99.90
19252;DHT22;9760;50.944;5.304;2023-03-24T05:13:53;10.50;99.90
19252;DHT22;9760;50.944;5.304;2023-03-24T05:16:18;10.40;99.90
19252;DHT22;9760;50.944;5.304;2023-03-24T05:18:45;10.40;99.90
19252;DHT22;9760;50.944;5.304;2023-03-24T05:21:11;10.40;99.90
19252;DHT22;9760;50.944;5.304;2023-03-24T05:23:37;10.40;99.90
19252;DHT22;9760;50.944;5.304;2023-03-24T05:26:03;10.40;99.90
19252;DHT22;9760;50.944;5.304;2023-03-24T05:28:28;10.50;99.90
19252;DHT22;9760;50.944;5.304;2023-03-24T05:30:54;10.50;99.90
19252;DHT22;9760;50.944;5.304;2023-03-24T05:33:20;10.50;99.90
19252;DHT22;9760;50.944;5.304;2023-03-24T05:35:45;10.50;99.90
19252;DHT22;9760;50.944;5.304;2023-03-24T05:38:11;10.50;99.90
19252;DHT22;9760;50.944;5.304;2023-03-24T05:40:36;10.60;99.90
19252;DHT22;9760;50.944;5.304;2023-03-24T05:43:02;10.50;99.90
19252;DHT22;9760;50.944;5.304;2023-03-24T05:45:28;10.50;99.90
19252;DHT22;9760;50.944;5.304;2023-03-24T05:47:54;10.50;99.90
19252;DHT22;9760;50.944;5.304;2023-03-24T05:50:20;10.60;99.90
19252;DHT22;9760;50.944;5.304;2023-03-24T05:52:47;10.50;99.90
19252;DHT22;9760;50.944;5.304;2023-03-24T05:55:13;10.50;99.90
19252;DHT22;9760;50.944;5.304;2023-03-24T05:57:40;10.50;99.90
19252;DHT22;9760;50.944;5.304;2023-03-24T06:00:06;10.40;99.90
19252;DHT22;9760;50.944;5.304;2023-03-24T06:02:42;10.40;99.90
19252;DHT22;9760;50.944;5.304;2023-03-24T06:05:08;10.40;99.90
19252;DHT22;9760;50.944;5.304;2023-03-24T06:07:34;10.40;99.90
19252;DHT22;9760;50.944;5.304;2023-03-24T06:10:00;10.30;99.90
19252;DHT22;9760;50.944;5.304;2023-03-24T06:12:29;10.30;99.90
19252;DHT22;9760;50.944;5.304;2023-03-24T06:14:56;10.40;99.90
19252;DHT22;9760;50.944;5.304;2023-03-24T06:17:22;10.40;99.90
19252;DHT22;9760;50.944;5.304;2023-03-24T06:19:51;10.50;99.90
19252;DHT22;9760;50.944;5.304;2023-03-24T06:22:18;10.40;99.90
19252;DHT22;9760;50.944;5.304;2023-03-24T06:24:45;10.50;99.90
19252;DHT22;9760;50.944;5.304;2023-03-24T06:27:11;10.40;99.90
19252;DHT22;9760;50.944;5.304;2023-03-24T06:29:39;10.50;99.90
19252;DHT22;9760;50.944;5.304;2023-03-24T06:32:07;10.50;99.90
19252;DHT22;9760;50.944;5.304;2023-03-24T06:34:33;10.50;99.90
19252;DHT22;9760;50.944;5.304;2023-03-24T06:36:59;10.40;99.90
19252;DHT22;9760;50.944;5.304;2023-03-24T06:39:24;10.50;99.90
19252;DHT22;9760;50.944;5.304;2023-03-24T06:41:51;10.50;99.90
19252;DHT22;9760;50.944;5.304;2023-03-24T06:44:17;10.40;99.90
19252;DHT22;9760;50.944;5.304;2023-03-24T06:46:42;10.40;99.90
19252;DHT22;9760;50.944;5.304;2023-03-24T06:49:10;10.40;99.90
19252;DHT22;9760;50.944;5.304;2023-03-24T06:51:36;10.40;99.90
19252;DHT22;9760;50.944;5.304;2023-03-24T06:54:01;10.40;99.90
19252;DHT22;9760;50.944;5.304;2023-03-24T06:56:28;10.40;99.90
19252;DHT22;9760;50.944;5.304;2023-03-24T06:58:54;10.40;99.90
19252;DHT22;9760;50.944;5.304;2023-03-24T07:01:21;10.40;99.90
19252;DHT22;9760;50.944;5.304;2023-03-24T07:03:47;10.40;99.90
19252;DHT22;9760;50.944;5.304;2023-03-24T07:06:14;10.50;99.90
19252;DHT22;9760;50.944;5.304;2023-03-24T07:08:39;10.50;99.90
19252;DHT22;9760;50.944;5.304;2023-03-24T07:11:06;10.60;99.90
19252;DHT22;9760;50.944;5.304;2023-03-24T07:13:33;10.60;99.90
19252;DHT22;9760;50.944;5.304;2023-03-24T07:15:59;10.70;99.90
19252;DHT22;9760;50.944;5.304;2023-03-24T07:18:25;10.70;99.90
19252;DHT22;9760;50.944;5.304;2023-03-24T07:20:50;10.80;99.90
19252;DHT22;9760;50.944;5.304;2023-03-24T07:23:16;10.80;99.90
19252;DHT22;9760;50.944;5.304;2023-03-24T07:25:42;10.80;99.90
19252;DHT22;9760;50.944;5.304;2023-03-24T07:28:09;10.80;99.90
19252;DHT22;9760;50.944;5.304;2023-03-24T07:30:35;10.90;99.90
19252;DHT22;9760;50.944;5.304;2023-03-24T07:33:02;10.90;99.90
19252;DHT22;9760;50.944;5.304;2023-03-24T07:35:28;10.90;99.90
19252;DHT22;9760;50.944;5.304;2023-03-24T07:37:58;11.00;99.90
19252;DHT22;9760;50.944;5.304;2023-03-24T07:40:23;11.10;99.90
19252;DHT22;9760;50.944;5.304;2023-03-24T07:42:49;11.00;99.90
19252;DHT22;9760;50.944;5.304;2023-03-24T07:45:16;11.00;99.90
19252;DHT22;9760;50.944;5.304;2023-03-24T07:47:43;10.90;99.90
19252;DHT22;9760;50.944;5.304;2023-03-24T07:50:09;11.00;99.90
19252;DHT22;9760;50.944;5.304;2023-03-24T07:52:40;11.10;99.90
19252;DHT22;9760;50.944;5.304;2023-03-24T07:55:08;11.20;99.90
19252;DHT22;9760;50.944;5.304;2023-03-24T07:57:37;11.30;99.90
19252;DHT22;9760;50.944;5.304;2023-03-24T08:00:07;11.30;99.90
19252;DHT22;9760;50.944;5.304;2023-03-24T08:02:43;11.50;99.90
19252;DHT22;9760;50.944;5.304;2023-03-24T08:05:09;11.30;99.90
19252;DHT22;9760;50.944;5.304;2023-03-24T08:07:38;11.30;99.90
19252;DHT22;9760;50.944;5.304;2023-03-24T08:10:08;11.40;99.90
19252;DHT22;9760;50.944;5.304;2023-03-24T08:12:33;11.50;99.90
19252;DHT22;9760;50.944;5.304;2023-03-24T08:14:59;11.70;99.90
19252;DHT22;9760;50.944;5.304;2023-03-24T08:17:25;11.80;99.90
19252;DHT22;9760;50.944;5.304;2023-03-24T08:19:51;11.70;99.90
19252;DHT22;9760;50.944;5.304;2023-03-24T08:22:16;11.80;99.90
19252;DHT22;9760;50.944;5.304;2023-03-24T08:24:42;12.00;99.90
19252;DHT22;9760;50.944;5.304;2023-03-24T08:27:07;12.10;99.90
19252;DHT22;9760;50.944;5.304;2023-03-24T08:29:33;12.10;99.90
19252;DHT22;9760;50.944;5.304;2023-03-24T08:31:59;11.90;99.90
19252;DHT22;9760;50.944;5.304;2023-03-24T08:34:26;11.90;99.90
19252;DHT22;9760;50.944;5.304;2023-03-24T08:36:52;12.00;99.90
19252;DHT22;9760;50.944;5.304;2023-03-24T08:39:17;12.10;99.90
19252;DHT22;9760;50.944;5.304;2023-03-24T08:41:44;12.20;99.90
19252;DHT22;9760;50.944;5.304;2023-03-24T08:44:11;12.20;99.90
19252;DHT22;9760;50.944;5.304;2023-03-24T08:46:37;12.10;99.90
19252;DHT22;9760;50.944;5.304;2023-03-24T08:49:03;12.10;99.90
19252;DHT22;9760;50.944;5.304;2023-03-24T08:51:29;12.10;99.90
19252;DHT22;9760;50.944;5.304;2023-03-24T08:53:55;12.00;99.90
19252;DHT22;9760;50.944;5.304;2023-03-24T08:56:21;12.00;99.90
19252;DHT22;9760;50.944;5.304;2023-03-24T08:58:47;12.00;99.90
19252;DHT22;9760;50.944;5.304;2023-03-24T09:01:16;12.20;99.90
19252;DHT22;9760;50.944;5.304;2023-03-24T09:03:42;12.20;99.90
19252;DHT22;9760;50.944;5.304;2023-03-24T09:06:09;12.30;99.90
19252;DHT22;9760;50.944;5.304;2023-03-24T09:08:35;12.20;99.90
19252;DHT22;9760;50.944;5.304;2023-03-24T09:11:01;12.10;99.90
19252;DHT22;9760;50.944;5.304;2023-03-24T09:13:27;12.10;99.90
19252;DHT22;9760;50.944;5.304;2023-03-24T09:15:56;12.20;99.90
19252;DHT22;9760;50.944;5.304;2023-03-24T09:18:22;12.40;99.90
19252;DHT22;9760;50.944;5.304;2023-03-24T09:20:48;12.60;99.90
19252;DHT22;9760;50.944;5.304;2023-03-24T09:23:14;12.60;99.90
19252;DHT22;9760;50.944;5.304;2023-03-24T09:25:40;12.80;99.90
19252;DHT22;9760;50.944;5.304;2023-03-24T09:28:06;13.00;99.90
19252;DHT22;9760;50.944;5.304;2023-03-24T09:30:33;12.90;99.90
19252;DHT22;9760;50.944;5.304;2023-03-24T09:32:59;12.80;99.90
19252;DHT22;9760;50.944;5.304;2023-03-24T09:35:25;12.70;99.90
19252;DHT22;9760;50.944;5.304;2023-03-24T09:37:52;12.70;99.90
19252;DHT22;9760;50.944;5.304;2023-03-24T09:40:24;12.70;99.90
19252;DHT22;9760;50.944;5.304;2023-03-24T09:43:30;12.70;99.90
19252;DHT22;9760;50.944;5.304;2023-03-24T09:45:56;12.90;99.90
19252;DHT22;9760;50.944;5.304;2023-03-24T09:51:17;13.00;99.90
19252;DHT22;9760;50.944;5.304;2023-03-24T09:53:51;13.10;99.90
19252;DHT22;9760;50.944;5.304;2023-03-24T09:56:21;13.30;99.90
19252;DHT22;9760;50.944;5.304;2023-03-24T10:01:36;13.30;99.90
19252;DHT22;9760;50.944;5.304;2023-03-24T10:04:02;13.50;99.90
19252;DHT22;9760;50.944;5.304;2023-03-24T10:06:33;13.40;99.90
19252;DHT22;9760;50.944;5.304;2023-03-24T10:09:23;13.30;99.90
19252;DHT22;9760;50.944;5.304;2023-03-24T10:17:33;13.30;99.90
19252;DHT22;9760;50.944;5.304;2023-03-24T10:25:27;13.40;99.90
19252;DHT22;9760;50.944;5.304;2023-03-24T10:30:47;13.70;99.90
19252;DHT22;9760;50.944;5.304;2023-03-24T10:33:14;14.30;99.90
19252;DHT22;9760;50.944;5.304;2023-03-24T10:36:05;14.20;99.90
19252;DHT22;9760;50.944;5.304;2023-03-24T10:38:32;14.20;99.90
19252;DHT22;9760;50.944;5.304;2023-03-24T10:40:59;14.30;99.90
19252;DHT22;9760;50.944;5.304;2023-03-24T10:43:25;14.30;99.90
19252;DHT22;9760;50.944;5.304;2023-03-24T10:45:52;14.30;99.90
19252;DHT22;9760;50.944;5.304;2023-03-24T10:48:42;14.20;99.90
19252;DHT22;9760;50.944;5.304;2023-03-24T10:51:31;14.10;99.90
19252;DHT22;9760;50.944;5.304;2023-03-24T10:54:24;14.10;99.90
19252;DHT22;9760;50.944;5.304;2023-03-24T10:57:14;14.00;99.90
19252;DHT22;9760;50.944;5.304;2023-03-24T11:00:06;13.70;99.90
19252;DHT22;9760;50.944;5.304;2023-03-24T11:02:36;13.70;99.90
19252;DHT22;9760;50.944;5.304;2023-03-24T11:05:19;13.60;99.90
19252;DHT22;9760;50.944;5.304;2023-03-24T11:07:48;13.60;99.90
19252;DHT22;9760;50.944;5.304;2023-03-24T11:10:22;13.90;99.90
19252;DHT22;9760;50.944;5.304;2023-03-24T11:15:22;15.60;99.90
19252;DHT22;9760;50.944;5.304;2023-03-24T11:20:39;16.20;99.90
19252;DHT22;9760;50.944;5.304;2023-03-24T11:23:14;16.40;99.90
19252;DHT22;9760;50.944;5.304;2023-03-24T11:25:44;16.10;99.90
19252;DHT22;9760;50.944;5.304;2023-03-24T11:28:16;15.30;99.90
19252;DHT22;9760;50.944;5.304;2023-03-24T11:30:50;14.90;99.90
19252;DHT22;9760;50.944;5.304;2023-03-24T11:35:45;15.10;99.90
19252;DHT22;9760;50.944;5.304;2023-03-24T11:38:16;15.40;99.90
19252;DHT22;9760;50.944;5.304;2023-03-24T11:40:52;15.20;99.90
19252;DHT22;9760;50.944;5.304;2023-03-24T11:43:20;15.30;99.90
19252;DHT22;9760;50.944;5.304;2023-03-24T11:45:59;15.00;99.90
19252;DHT22;9760;50.944;5.304;2023-03-24T11:51:04;14.90;99.90
19252;DHT22;9760;50.944;5.304;2023-03-24T11:53:42;14.60;99.90
19252;DHT22;9760;50.944;5.304;2023-03-24T11:59:06;14.30;99.90
19252;DHT22;9760;50.944;5.304;2023-03-24T12:01:38;14.00;99.90
19252;DHT22;9760;50.944;5.304;2023-03-24T12:04:28;14.20;99.90
19252;DHT22;9760;50.944;5.304;2023-03-24T12:07:03;14.90;99.90
19252;DHT22;9760;50.944;5.304;2023-03-24T12:12:35;15.50;99.90
19252;DHT22;9760;50.944;5.304;2023-03-24T12:17:40;15.50;99.90
19252;DHT22;9760;50.944;5.304;2023-03-24T12:22:54;15.20;99.90
19252;DHT22;9760;50.944;5.304;2023-03-24T12:28:50;15.50;99.90
19252;DHT22;9760;50.944;5.304;2023-03-24T12:34:27;15.30;99.90
19252;DHT22;9760;50.944;5.304;2023-03-24T12:37:16;15.10;99.90
19252;DHT22;9760;50.944;5.304;2023-03-24T12:42:39;15.30;99.90
19252;DHT22;9760;50.944;5.304;2023-03-24T12:48:08;15.60;99.90
19252;DHT22;9760;50.944;5.304;2023-03-24T12:51:01;15.30;99.90
19252;DHT22;9760;50.944;5.304;2023-03-24T12:58:45;14.40;99.90
19252;DHT22;9760;50.944;5.304;2023-03-24T13:01:30;13.70;99.90
19252;DHT22;9760;50.944;5.304;2023-03-24T13:06:29;12.50;99.90
19252;DHT22;9760;50.944;5.304;2023-03-24T13:09:35;12.80;99.90
19252;DHT22;9760;50.944;5.304;2023-03-24T13:12:22;12.80;99.90
19252;DHT22;9760;50.944;5.304;2023-03-24T13:15:15;13.00;99.90
19252;DHT22;9760;50.944;5.304;2023-03-24T13:17:52;13.20;99.90
19252;DHT22;9760;50.944;5.304;2023-03-24T13:20:44;13.30;99.90
19252;DHT22;9760;50.944;5.304;2023-03-24T13:25:53;13.80;99.90
19252;DHT22;9760;50.944;5.304;2023-03-24T13:28:26;14.00;99.90
19252;DHT22;9760;50.944;5.304;2023-03-24T13:30:54;14.10;99.90
19252;DHT22;9760;50.944;5.304;2023-03-24T13:33:24;14.10;99.90
19252;DHT22;9760;50.944;5.304;2023-03-24T13:38:45;14.10;99.90
19252;DHT22;9760;50.944;5.304;2023-03-24T13:41:17;14.00;99.90
19252;DHT22;9760;50.944;5.304;2023-03-24T13:44:07;14.30;99.90
19252;DHT22;9760;50.944;5.304;2023-03-24T13:46:39;14.50;99.90
19252;DHT22;9760;50.944;5.304;2023-03-24T13:49:10;14.50;99.90
19252;DHT22;9760;50.944;5.304;2023-03-24T13:51:42;14.50;99.90
19252;DHT22;9760;50.944;5.304;2023-03-24T13:54:11;14.40;99.90
19252;DHT22;9760;50.944;5.304;2023-03-24T13:56:39;14.30;99.90
19252;DHT22;9760;50.944;5.304;2023-03-24T13:59:27;14.20;99.90
19252;DHT22;9760;50.944;5.304;2023-03-24T14:02:22;14.20;99.90
19252;DHT22;9760;50.944;5.304;2023-03-24T14:07:48;13.60;99.90
19252;DHT22;9760;50.944;5.304;2023-03-24T14:15:29;12.60;99.90
19252;DHT22;9760;50.944;5.304;2023-03-24T14:20:40;10.70;99.90
19252;DHT22;9760;50.944;5.304;2023-03-24T14:23:35;10.60;99.90
19252;DHT22;9760;50.944;5.304;2023-03-24T14:26:05;10.80;99.90
19252;DHT22;9760;50.944;5.304;2023-03-24T14:28:40;10.90;99.90
19252;DHT22;9760;50.944;5.304;2023-03-24T14:33:38;10.90;99.90
19252;DHT22;9760;50.944;5.304;2023-03-24T14:36:05;10.70;99.90
19252;DHT22;9760;50.944;5.304;2023-03-24T14:38:40;10.80;99.90
19252;DHT22;9760;50.944;5.304;2023-03-24T14:41:11;10.90;99.90
19252;DHT22;9760;50.944;5.304;2023-03-24T14:49:30;10.90;99.90
19252;DHT22;9760;50.944;5.304;2023-03-24T14:51:59;11.00;99.90
19252;DHT22;9760;50.944;5.304;2023-03-24T14:56:54;11.00;99.90
19252;DHT22;9760;50.944;5.304;2023-03-24T15:05:19;11.00;99.90
19252;DHT22;9760;50.944;5.304;2023-03-24T15:13:50;11.30;99.90
19252;DHT22;9760;50.944;5.304;2023-03-24T15:16:22;11.40;99.90
19252;DHT22;9760;50.944;5.304;2023-03-24T15:18:56;11.50;99.90
19252;DHT22;9760;50.944;5.304;2023-03-24T15:21:36;11.70;99.90
19252;DHT22;9760;50.944;5.304;2023-03-24T15:26:47;12.30;99.90
19252;DHT22;9760;50.944;5.304;2023-03-24T15:29:13;12.40;99.90
19252;DHT22;9760;50.944;5.304;2023-03-24T15:31:38;12.30;99.90
19252;DHT22;9760;50.944;5.304;2023-03-24T15:37:06;12.30;99.90
19252;DHT22;9760;50.944;5.304;2023-03-24T15:39:51;12.40;99.90
19252;DHT22;9760;50.944;5.304;2023-03-24T15:42:20;12.40;99.90
19252;DHT22;9760;50.944;5.304;2023-03-24T15:44:47;12.50;99.90
19252;DHT22;9760;50.944;5.304;2023-03-24T15:47:36;12.60;99.90
19252;DHT22;9760;50.944;5.304;2023-03-24T15:50:01;12.60;99.90
19252;DHT22;9760;50.944;5.304;2023-03-24T15:54:59;12.80;99.90
19252;DHT22;9760;50.944;5.304;2023-03-24T15:57:26;12.90;99.90
19252;DHT22;9760;50.944;5.304;2023-03-24T16:00:04;13.00;99.90
19252;DHT22;9760;50.944;5.304;2023-03-24T16:02:47;13.00;99.90
19252;DHT22;9760;50.944;5.304;2023-03-24T16:05:18;13.10;99.90
19252;DHT22;9760;50.944;5.304;2023-03-24T16:10:41;13.20;99.90
19252;DHT22;9760;50.944;5.304;2023-03-24T16:13:19;13.40;99.90
19252;DHT22;9760;50.944;5.304;2023-03-24T16:16:21;13.60;99.90
19252;DHT22;9760;50.944;5.304;2023-03-24T16:18:48;13.80;99.90
19252;DHT22;9760;50.944;5.304;2023-03-24T16:23:44;14.50;99.90
19252;DHT22;9760;50.944;5.304;2023-03-24T16:26:14;15.00;99.90
19252;DHT22;9760;50.944;5.304;2023-03-24T16:28:40;15.70;99.90
19252;DHT22;9760;50.944;5.304;2023-03-24T16:31:06;15.80;99.90
19252;DHT22;9760;50.944;5.304;2023-03-24T16:33:32;16.10;99.90
19252;DHT22;9760;50.944;5.304;2023-03-24T16:35:59;16.40;99.90
19252;DHT22;9760;50.944;5.304;2023-03-24T16:38:25;15.70;99.90
19252;DHT22;9760;50.944;5.304;2023-03-24T16:40:53;15.40;99.90
19252;DHT22;9760;50.944;5.304;2023-03-24T16:43:19;15.00;99.90
19252;DHT22;9760;50.944;5.304;2023-03-24T16:45:49;14.20;99.90
19252;DHT22;9760;50.944;5.304;2023-03-24T16:48:15;13.80;99.90
19252;DHT22;9760;50.944;5.304;2023-03-24T16:50:46;13.40;99.90
19252;DHT22;9760;50.944;5.304;2023-03-24T16:53:14;13.20;99.90
19252;DHT22;9760;50.944;5.304;2023-03-24T16:55:40;13.00;99.90
19252;DHT22;9760;50.944;5.304;2023-03-24T16:58:06;12.90;99.90
19252;DHT22;9760;50.944;5.304;2023-03-24T17:00:33;12.90;99.90
19252;DHT22;9760;50.944;5.304;2023-03-24T17:03:02;12.80;99.90
19252;DHT22;9760;50.944;5.304;2023-03-24T17:05:33;12.70;99.90
19252;DHT22;9760;50.944;5.304;2023-03-24T17:08:00;12.60;99.90
19252;DHT22;9760;50.944;5.304;2023-03-24T17:10:26;12.60;99.90
19252;DHT22;9760;50.944;5.304;2023-03-24T17:12:54;12.50;99.90
19252;DHT22;9760;50.944;5.304;2023-03-24T17:17:45;12.50;99.90
19252;DHT22;9760;50.944;5.304;2023-03-24T17:20:11;12.50;99.90
19252;DHT22;9760;50.944;5.304;2023-03-24T17:22:38;12.40;99.90
19252;DHT22;9760;50.944;5.304;2023-03-24T17:25:05;12.40;99.90
19252;DHT22;9760;50.944;5.304;2023-03-24T17:27:31;12.30;99.90
19252;DHT22;9760;50.944;5.304;2023-03-24T17:29:57;12.30;99.90
19252;DHT22;9760;50.944;5.304;2023-03-24T17:32:30;12.20;99.90
19252;DHT22;9760;50.944;5.304;2023-03-24T17:34:57;12.20;99.90
19252;DHT22;9760;50.944;5.304;2023-03-24T17:37:23;12.20;99.90
19252;DHT22;9760;50.944;5.304;2023-03-24T17:39:49;12.20;99.90
19252;DHT22;9760;50.944;5.304;2023-03-24T17:42:14;12.30;99.90
19252;DHT22;9760;50.944;5.304;2023-03-24T17:44:40;12.30;99.90
19252;DHT22;9760;50.944;5.304;2023-03-24T17:47:06;12.30;99.90
19252;DHT22;9760;50.944;5.304;2023-03-24T17:49:31;12.30;99.90
19252;DHT22;9760;50.944;5.304;2023-03-24T17:51:58;12.30;99.90
19252;DHT22;9760;50.944;5.304;2023-03-24T17:54:23;12.30;99.90
19252;DHT22;9760;50.944;5.304;2023-03-24T17:56:50;12.20;99.90
19252;DHT22;9760;50.944;5.304;2023-03-24T17:59:16;11.80;99.90
19252;DHT22;9760;50.944;5.304;2023-03-24T18:01:41;11.50;99.90
19252;DHT22;9760;50.944;5.304;2023-03-24T18:04:07;11.40;99.90
19252;DHT22;9760;50.944;5.304;2023-03-24T18:06:33;11.40;99.90
19252;DHT22;9760;50.944;5.304;2023-03-24T18:08:59;11.30;99.90
19252;DHT22;9760;50.944;5.304;2023-03-24T18:11:24;11.30;99.90
19252;DHT22;9760;50.944;5.304;2023-03-24T18:13:50;11.20;99.90
19252;DHT22;9760;50.944;5.304;2023-03-24T18:16:16;10.90;99.90
19252;DHT22;9760;50.944;5.304;2023-03-24T18:18:42;10.40;99.90
19252;DHT22;9760;50.944;5.304;2023-03-24T18:21:09;10.30;99.90
19252;DHT22;9760;50.944;5.304;2023-03-24T18:23:36;10.20;99.90
19252;DHT22;9760;50.944;5.304;2023-03-24T18:26:04;10.20;99.90
19252;DHT22;9760;50.944;5.304;2023-03-24T18:28:32;10.10;99.90
19252;DHT22;9760;50.944;5.304;2023-03-24T18:30:58;9.90;99.90
19252;DHT22;9760;50.944;5.304;2023-03-24T18:33:24;9.90;99.90
19252;DHT22;9760;50.944;5.304;2023-03-24T18:35:53;9.80;99.90
19252;DHT22;9760;50.944;5.304;2023-03-24T18:38:20;9.70;99.90
19252;DHT22;9760;50.944;5.304;2023-03-24T18:41:00;9.70;99.90
19252;DHT22;9760;50.944;5.304;2023-03-24T18:43:27;9.60;99.90
19252;DHT22;9760;50.944;5.304;2023-03-24T18:45:55;9.60;99.90
19252;DHT22;9760;50.944;5.304;2023-03-24T18:48:21;9.50;99.90
19252;DHT22;9760;50.944;5.304;2023-03-24T18:50:50;9.50;99.90
19252;DHT22;9760;50.944;5.304;2023-03-24T18:53:17;9.40;99.90
19252;DHT22;9760;50.944;5.304;2023-03-24T18:55:45;9.40;99.90
19252;DHT22;9760;50.944;5.304;2023-03-24T18:58:11;9.40;99.90
19252;DHT22;9760;50.944;5.304;2023-03-24T19:00:41;9.30;99.90